createdAt,value
2018-03-17T00:00:42.497Z,3.00
2018-03-17T00:05:45.721Z,2.90
2018-03-17T00:10:49.030Z,2.80
2018-03-17T00:15:52.244Z,2.80
2018-03-17T00:20:55.460Z,2.70
2018-03-17T00:25:58.748Z,2.80
2018-03-17T00:31:01.943Z,2.80
2018-03-17T00:36:05.158Z,2.70
2018-03-17T00:41:08.360Z,2.80
2018-03-17T00:46:12.589Z,2.90
2018-03-17T00:51:16.466Z,2.90
2018-03-17T00:56:19.849Z,2.70
2018-03-17T01:01:23.206Z,2.70
2018-03-17T01:06:26.475Z,2.70
2018-03-17T01:11:30.077Z,2.60
2018-03-17T01:16:34.347Z,2.60
2018-03-17T01:21:40.419Z,2.40
2018-03-17T01:26:43.650Z,2.40
2018-03-17T01:31:47.011Z,2.30
2018-03-17T01:36:50.943Z,2.60
2018-03-17T01:41:54.690Z,2.60
2018-03-17T01:46:57.915Z,2.70
2018-03-17T01:52:02.275Z,2.60
2018-03-17T01:57:05.540Z,2.60
2018-03-17T02:02:08.785Z,2.70
2018-03-17T02:07:11.999Z,2.70
2018-03-17T02:12:15.205Z,2.80
2018-03-17T02:17:20.040Z,2.80
2018-03-17T02:22:23.357Z,2.80
2018-03-17T02:27:26.961Z,2.70
2018-03-17T02:32:31.983Z,2.70
2018-03-17T02:37:35.223Z,2.80
2018-03-17T02:42:38.933Z,2.60
2018-03-17T02:47:42.266Z,2.70
2018-03-17T02:58:15.421Z,2.70
2018-03-17T03:03:18.685Z,2.80
2018-03-17T03:13:55.815Z,2.80
2018-03-17T03:18:59.033Z,2.90
2018-03-17T03:24:02.691Z,2.80
2018-03-17T03:29:06.989Z,2.80
2018-03-17T03:34:10.693Z,3.00
2018-03-17T03:39:14.433Z,3.00
2018-03-17T03:44:17.637Z,3.00
2018-03-17T03:49:20.935Z,3.00
2018-03-17T03:54:24.318Z,3.00
2018-03-17T03:59:28.115Z,3.10
2018-03-17T04:04:31.320Z,3.00
2018-03-17T04:09:34.655Z,3.10
2018-03-17T04:14:37.963Z,3.10
2018-03-17T04:19:42.334Z,3.10
2018-03-17T04:24:48.786Z,3.10
2018-03-17T04:29:52.415Z,3.10
2018-03-17T04:34:56.668Z,3.10
2018-03-17T04:39:59.876Z,3.10
2018-03-17T04:45:03.244Z,3.10
2018-03-17T04:50:06.872Z,3.00
2018-03-17T04:55:10.483Z,2.90
2018-03-17T05:00:14.108Z,3.00
2018-03-17T05:05:17.325Z,3.00
2018-03-17T05:10:20.531Z,2.90
2018-03-17T05:15:23.736Z,2.90
2018-03-17T05:20:26.933Z,2.80
2018-03-17T05:25:30.135Z,2.80
2018-03-17T05:30:33.366Z,2.80
2018-03-17T05:35:36.596Z,2.80
2018-03-17T05:40:39.924Z,2.60
2018-03-17T05:45:43.137Z,2.60
2018-03-17T05:50:46.748Z,2.60
2018-03-17T05:55:49.949Z,2.60
2018-03-17T06:00:53.256Z,2.60
2018-03-17T06:05:56.463Z,2.60
2018-03-17T06:10:59.689Z,2.60
2018-03-17T06:16:03.095Z,2.70
2018-03-17T06:21:06.485Z,2.90
2018-03-17T06:26:09.709Z,3.00
2018-03-17T06:31:13.316Z,3.30
2018-03-17T06:36:17.023Z,3.50
2018-03-17T06:41:20.233Z,3.50
2018-03-17T06:46:23.520Z,3.70
2018-03-17T06:51:26.758Z,3.90
2018-03-17T06:56:30.855Z,4.00
2018-03-17T07:01:34.180Z,4.20
2018-03-17T07:06:37.788Z,4.80
2018-03-17T07:11:41.000Z,4.80
2018-03-17T07:16:44.667Z,5.20
2018-03-17T07:21:47.881Z,5.20
2018-03-17T07:26:51.198Z,5.60
2018-03-17T07:31:54.479Z,6.20
2018-03-17T07:36:57.684Z,6.90
2018-03-17T07:42:00.916Z,7.20
2018-03-17T07:47:04.256Z,7.50
2018-03-17T07:52:07.513Z,7.30
2018-03-17T07:57:10.743Z,7.60
2018-03-17T08:02:13.969Z,7.50
2018-03-17T08:07:17.182Z,7.70
2018-03-17T08:12:20.795Z,8.10
2018-03-17T08:17:24.489Z,8.00
2018-03-17T08:22:27.749Z,8.00
2018-03-17T08:27:31.070Z,8.10
2018-03-17T08:32:34.278Z,7.80
2018-03-17T08:37:37.978Z,7.70
2018-03-17T08:42:41.202Z,7.90
2018-03-17T08:47:44.589Z,7.70
2018-03-17T08:52:47.801Z,7.60
2018-03-17T08:57:51.019Z,7.50
2018-03-17T09:02:54.235Z,7.40
2018-03-17T09:07:57.453Z,7.30
2018-03-17T09:13:00.791Z,7.60
2018-03-17T09:18:04.499Z,7.80
2018-03-17T09:23:07.676Z,7.80
2018-03-17T09:28:13.122Z,7.90
2018-03-17T09:33:16.578Z,8.10
2018-03-17T09:38:20.235Z,8.20
2018-03-17T09:43:23.628Z,8.40
2018-03-17T09:48:27.302Z,8.50
2018-03-17T09:53:30.858Z,8.50
2018-03-17T09:58:34.588Z,8.60
2018-03-17T10:03:38.930Z,8.60
2018-03-17T10:08:42.802Z,9.00
2018-03-17T10:13:46.881Z,8.70
2018-03-17T10:18:51.681Z,8.70
2018-03-17T10:23:56.117Z,8.50
2018-03-17T10:28:59.839Z,9.10
2018-03-17T10:34:03.564Z,8.80
2018-03-17T10:39:06.792Z,8.80
2018-03-17T10:44:10.025Z,9.00
2018-03-17T10:49:13.240Z,8.50
2018-03-17T10:54:16.580Z,8.40
2018-03-17T11:06:23.021Z,8.40
2018-03-17T11:11:26.313Z,8.40
2018-03-17T11:16:30.010Z,8.50
2018-03-17T11:21:33.227Z,8.50
2018-03-17T11:26:36.845Z,9.20
2018-03-17T11:31:40.451Z,9.30
2018-03-17T11:36:43.836Z,9.30
2018-03-17T11:41:47.072Z,9.20
2018-03-17T11:46:50.330Z,9.00
2018-03-17T11:51:53.556Z,8.90
2018-03-17T11:56:56.922Z,8.50
2018-03-17T12:02:00.136Z,8.30
2018-03-17T12:07:03.406Z,8.00
2018-03-17T12:12:07.117Z,7.70
2018-03-17T12:17:10.806Z,7.80
2018-03-17T12:22:14.035Z,7.80
2018-03-17T12:27:17.634Z,7.70
2018-03-17T12:32:20.867Z,7.70
2018-03-17T12:37:24.503Z,7.60
2018-03-17T12:42:27.773Z,7.60
2018-03-17T12:47:31.008Z,7.70
2018-03-17T12:52:34.248Z,7.60
2018-03-17T12:57:37.488Z,7.60
2018-03-17T13:02:40.712Z,7.10
2018-03-17T13:07:44.328Z,6.60
2018-03-17T13:12:47.931Z,6.60
2018-03-17T13:17:51.220Z,6.60
2018-03-17T13:23:06.423Z,6.40
2018-03-17T13:28:29.610Z,6.30
2018-03-17T13:33:33.283Z,6.10
2018-03-17T13:38:36.487Z,6.10
2018-03-17T13:43:39.721Z,6.00
2018-03-17T13:48:42.956Z,6.10
2018-03-17T13:53:46.164Z,6.00
2018-03-17T13:58:49.391Z,5.90
2018-03-17T14:03:52.658Z,5.90
2018-03-17T14:08:56.276Z,5.80
2018-03-17T14:13:59.892Z,5.80
2018-03-17T14:19:03.497Z,5.60
2018-03-17T14:24:07.135Z,5.60
2018-03-17T14:29:10.384Z,5.60
2018-03-17T14:34:13.630Z,5.40
2018-03-17T14:39:17.255Z,5.30
2018-03-17T14:44:20.873Z,5.20
2018-03-17T14:49:24.103Z,5.30
2018-03-17T14:54:27.299Z,5.10
2018-03-17T14:59:30.521Z,5.10
2018-03-17T15:04:33.769Z,4.90
2018-03-17T15:09:37.300Z,4.80
2018-03-17T15:14:42.474Z,4.70
2018-03-17T15:19:45.730Z,4.70
2018-03-17T15:24:49.367Z,4.70
2018-03-17T15:29:53.091Z,4.70
2018-03-17T15:34:56.328Z,4.70
2018-03-17T15:39:59.572Z,4.70
2018-03-17T15:45:02.902Z,4.60
2018-03-17T15:50:06.139Z,4.60
2018-03-17T15:55:09.408Z,4.50
2018-03-17T16:00:13.041Z,4.40
2018-03-17T16:05:16.256Z,4.40
2018-03-17T16:10:19.471Z,4.30
2018-03-17T16:15:22.722Z,4.30
2018-03-17T16:20:26.214Z,4.20
2018-03-17T16:25:29.547Z,4.00
2018-03-17T16:30:32.801Z,4.00
2018-03-17T16:35:36.022Z,3.90
2018-03-17T16:40:39.255Z,3.90
2018-03-17T16:45:42.508Z,3.70
2018-03-17T16:50:45.721Z,3.60
2018-03-17T16:55:48.991Z,3.60
2018-03-17T17:00:52.655Z,3.40
2018-03-17T17:05:57.037Z,3.50
2018-03-17T17:11:00.672Z,3.40
2018-03-17T17:16:05.903Z,3.30
2018-03-17T17:21:09.206Z,3.30
2018-03-17T17:26:12.518Z,3.20
2018-03-17T17:31:15.925Z,3.20
2018-03-17T17:36:19.539Z,3.20
2018-03-17T17:41:23.255Z,3.20
2018-03-17T17:46:27.114Z,3.10
2018-03-17T17:57:12.673Z,3.10
2018-03-17T18:02:16.846Z,2.90
2018-03-17T18:07:20.707Z,2.90
2018-03-17T18:12:24.757Z,2.80
2018-03-17T18:17:30.653Z,2.80
2018-03-17T18:22:34.273Z,2.70
2018-03-17T18:27:37.899Z,2.60
2018-03-17T18:32:41.122Z,2.60
2018-03-17T18:37:44.414Z,2.60
2018-03-17T18:42:48.636Z,2.50
2018-03-17T18:47:54.379Z,2.20
2018-03-17T18:52:57.634Z,2.20
2018-03-17T18:58:01.137Z,2.10
2018-03-17T19:03:04.370Z,2.10
2018-03-17T19:08:07.597Z,2.00
2018-03-17T19:13:11.284Z,2.00
2018-03-17T19:18:14.713Z,2.00
2018-03-17T19:23:17.997Z,1.90
2018-03-17T19:28:21.227Z,1.90
2018-03-17T19:33:24.849Z,1.50
2018-03-17T19:38:28.334Z,1.50
2018-03-17T19:43:31.680Z,1.40
2018-03-17T19:48:34.935Z,1.40
2018-03-17T19:53:38.260Z,1.30
2018-03-17T19:58:41.894Z,1.30
2018-03-17T20:03:45.108Z,1.20
2018-03-17T20:08:49.277Z,1.20
2018-03-17T20:13:53.026Z,1.00
2018-03-17T20:18:56.949Z,1.00
2018-03-17T20:24:00.323Z,1.00
2018-03-17T20:29:03.730Z,1.00
2018-03-17T20:34:07.992Z,0.90
2018-03-17T20:39:11.572Z,0.90
2018-03-17T20:44:15.594Z,0.70
2018-03-17T20:49:18.952Z,0.70
2018-03-17T20:54:23.205Z,0.60
2018-03-17T20:59:26.434Z,0.50
2018-03-17T21:04:29.704Z,0.40
2018-03-17T21:09:32.927Z,0.50
2018-03-17T21:14:36.484Z,0.50
2018-03-17T21:19:40.005Z,0.60
2018-03-17T21:24:43.231Z,0.60
2018-03-17T21:29:46.913Z,0.70
2018-03-17T21:34:50.593Z,0.70
2018-03-17T21:39:53.950Z,0.70
2018-03-17T21:44:57.661Z,0.50
2018-03-17T21:50:00.951Z,0.50
2018-03-17T21:55:04.362Z,0.50
2018-03-17T22:00:08.276Z,0.70
2018-03-17T22:05:14.264Z,0.70
2018-03-17T22:10:17.982Z,0.50
2018-03-17T22:15:27.618Z,0.40
2018-03-17T22:20:38.827Z,0.40
2018-03-17T22:25:44.247Z,0.40
2018-03-17T22:30:48.074Z,0.40
2018-03-17T22:35:51.437Z,0.40
2018-03-17T22:40:56.961Z,0.20
2018-03-17T22:46:00.182Z,0.10
2018-03-17T22:51:03.436Z,0.20
2018-03-17T22:56:06.966Z,0.10
2018-03-17T23:01:11.150Z,0.20
2018-03-17T23:06:15.044Z,0.10
2018-03-17T23:11:18.587Z,0.10
2018-03-17T23:16:22.757Z,0.00
2018-03-17T23:21:27.333Z,0.00
2018-03-17T23:26:30.547Z,0.10
2018-03-17T23:31:35.327Z,-0.10
2018-03-17T23:36:38.787Z,-0.10
2018-03-17T23:41:43.892Z,-0.10
2018-03-17T23:46:48.272Z,-0.20
2018-03-17T23:51:51.992Z,-0.20
2018-03-17T23:56:56.734Z,-0.30
